createdAt,value
2019-03-31T00:02:44.728Z,8.40
2019-03-31T00:05:31.859Z,8.33
2019-03-31T00:08:19.144Z,9.27
2019-03-31T00:11:06.980Z,8.57
2019-03-31T00:13:54.009Z,8.97
2019-03-31T00:16:41.101Z,8.10
2019-03-31T00:19:28.304Z,8.60
2019-03-31T00:22:14.939Z,8.17
2019-03-31T00:25:02.001Z,8.77
2019-03-31T00:27:49.035Z,8.13
2019-03-31T00:30:36.368Z,9.13
2019-03-31T00:33:23.672Z,9.03
2019-03-31T00:36:10.851Z,8.67
2019-03-31T00:38:57.986Z,8.83
2019-03-31T00:41:44.929Z,9.23
2019-03-31T00:44:31.975Z,9.10
2019-03-31T00:47:19.297Z,9.60
2019-03-31T00:50:07.120Z,8.80
2019-03-31T00:52:54.417Z,9.70
2019-03-31T00:55:41.247Z,9.23
2019-03-31T00:58:28.548Z,9.17
2019-03-31T01:01:20.774Z,9.27
2019-03-31T01:04:09.850Z,8.90
2019-03-31T01:06:57.809Z,8.57
2019-03-31T01:09:45.123Z,8.53
2019-03-31T01:12:32.265Z,8.77
2019-03-31T01:15:23.164Z,8.57
2019-03-31T01:18:10.459Z,8.40
2019-03-31T01:20:57.501Z,9.30
2019-03-31T01:23:44.568Z,9.10
2019-03-31T01:26:32.310Z,9.03
2019-03-31T01:29:19.480Z,8.37
2019-03-31T01:32:06.675Z,9.10
2019-03-31T01:34:53.709Z,8.97
2019-03-31T01:37:40.976Z,8.30
2019-03-31T01:40:28.212Z,9.70
2019-03-31T01:43:15.375Z,9.77
2019-03-31T01:46:02.260Z,9.10
2019-03-31T01:48:49.699Z,9.30
2019-03-31T01:51:36.701Z,9.67
2019-03-31T01:54:23.912Z,9.03
2019-03-31T01:57:11.071Z,9.23
2019-03-31T01:59:58.495Z,8.50
2019-03-31T02:02:45.601Z,9.30
2019-03-31T02:05:32.298Z,8.87
2019-03-31T02:08:19.733Z,12.87
2019-03-31T02:11:06.681Z,9.90
2019-03-31T02:13:53.823Z,9.53
2019-03-31T02:16:41.163Z,10.17
2019-03-31T02:19:28.493Z,9.57
2019-03-31T02:22:15.558Z,9.30
2019-03-31T02:25:02.700Z,9.37
2019-03-31T02:27:49.783Z,9.83
2019-03-31T02:30:37.004Z,10.07
2019-03-31T02:33:24.075Z,8.67
2019-03-31T02:36:11.070Z,9.13
2019-03-31T02:38:57.961Z,9.07
2019-03-31T02:41:45.435Z,9.60
2019-03-31T02:44:32.373Z,9.30
2019-03-31T02:47:19.526Z,9.37
2019-03-31T02:50:07.967Z,9.17
2019-03-31T02:52:55.053Z,10.07
2019-03-31T02:55:44.195Z,9.30
2019-03-31T02:58:31.754Z,10.43
2019-03-31T03:01:20.273Z,9.77
2019-03-31T03:04:09.402Z,9.77
2019-03-31T03:06:57.426Z,9.30
2019-03-31T03:09:46.239Z,10.07
2019-03-31T03:12:35.083Z,9.37
2019-03-31T03:15:28.567Z,8.73
2019-03-31T03:18:15.558Z,9.73
2019-03-31T03:21:02.590Z,8.57
2019-03-31T03:23:50.617Z,8.90
2019-03-31T03:26:37.638Z,8.90
2019-03-31T03:29:24.851Z,9.93
2019-03-31T03:32:12.514Z,8.80
2019-03-31T03:34:59.556Z,8.90
2019-03-31T03:37:46.845Z,9.43
2019-03-31T03:40:34.217Z,10.63
2019-03-31T03:43:21.344Z,9.07
2019-03-31T03:46:08.401Z,8.97
2019-03-31T03:48:55.132Z,9.73
2019-03-31T03:51:42.703Z,8.97
2019-03-31T03:54:29.708Z,8.93
2019-03-31T03:57:16.611Z,10.10
2019-03-31T04:00:06.019Z,10.13
2019-03-31T04:02:52.978Z,9.93
2019-03-31T04:05:40.121Z,8.37
2019-03-31T04:08:26.975Z,8.67
2019-03-31T04:11:20.861Z,9.57
2019-03-31T04:14:05.730Z,8.97
2019-03-31T04:16:52.978Z,9.13
2019-03-31T04:19:40.169Z,9.10
2019-03-31T04:22:27.459Z,9.63
2019-03-31T04:25:14.642Z,8.90
2019-03-31T04:28:01.699Z,9.23
2019-03-31T04:30:48.722Z,8.97
2019-03-31T04:33:50.472Z,9.10
2019-03-31T04:36:24.979Z,8.57
2019-03-31T04:39:11.989Z,8.70
2019-03-31T04:41:59.271Z,8.53
2019-03-31T04:44:46.246Z,9.20
2019-03-31T04:47:33.516Z,9.40
2019-03-31T04:50:20.335Z,9.47
2019-03-31T04:53:07.704Z,10.17
2019-03-31T04:55:54.767Z,9.50
2019-03-31T04:58:42.371Z,10.03
2019-03-31T05:01:29.762Z,9.40
2019-03-31T05:04:16.983Z,9.93
2019-03-31T05:07:03.938Z,9.30
2019-03-31T05:09:50.890Z,9.40
2019-03-31T05:12:37.646Z,9.00
2019-03-31T05:15:24.471Z,9.60
2019-03-31T05:18:11.759Z,9.20
2019-03-31T05:20:59.090Z,10.00
2019-03-31T05:23:46.161Z,9.60
2019-03-31T05:26:33.323Z,10.10
2019-03-31T05:29:20.267Z,9.43
2019-03-31T05:32:07.529Z,9.83
2019-03-31T05:34:54.792Z,10.00
2019-03-31T05:37:50.704Z,9.53
2019-03-31T05:40:30.974Z,9.97
2019-03-31T05:43:18.016Z,9.50
2019-03-31T05:46:05.457Z,9.97
2019-03-31T05:48:52.513Z,9.93
2019-03-31T05:51:39.538Z,10.00
2019-03-31T05:54:26.754Z,9.47
2019-03-31T05:57:14.065Z,9.93
2019-03-31T06:00:01.394Z,10.80
2019-03-31T06:02:48.784Z,11.60
2019-03-31T06:05:36.575Z,12.90
2019-03-31T06:08:24.156Z,11.13
2019-03-31T06:11:11.438Z,9.70
2019-03-31T06:13:58.542Z,10.63
2019-03-31T06:16:45.911Z,10.53
2019-03-31T06:19:33.132Z,12.60
2019-03-31T06:22:20.301Z,11.30
2019-03-31T06:25:07.862Z,11.47
2019-03-31T06:27:55.026Z,12.27
2019-03-31T06:30:41.992Z,12.20
2019-03-31T06:33:29.008Z,11.57
2019-03-31T06:36:16.493Z,11.33
2019-03-31T06:39:05.853Z,11.93
2019-03-31T06:41:53.051Z,11.77
2019-03-31T06:44:40.122Z,12.07
2019-03-31T06:47:27.426Z,11.53
2019-03-31T06:50:14.441Z,11.57
2019-03-31T06:53:01.456Z,11.30
2019-03-31T06:55:48.547Z,11.60
2019-03-31T06:58:35.523Z,12.43
2019-03-31T07:01:22.887Z,11.27
2019-03-31T07:04:09.933Z,10.90
2019-03-31T07:06:57.233Z,10.70
2019-03-31T07:09:44.429Z,11.23
2019-03-31T07:12:31.419Z,11.83
2019-03-31T07:15:18.211Z,11.40
2019-03-31T07:18:05.555Z,11.73
2019-03-31T07:20:52.261Z,11.77
2019-03-31T07:23:39.225Z,12.17
2019-03-31T07:26:26.422Z,11.73
2019-03-31T07:29:13.496Z,12.47
2019-03-31T07:32:00.608Z,11.60
2019-03-31T07:34:47.784Z,11.43
2019-03-31T07:37:46.625Z,11.77
2019-03-31T07:40:23.432Z,11.37
2019-03-31T07:43:10.957Z,12.93
2019-03-31T07:45:58.032Z,13.50
2019-03-31T07:48:45.785Z,14.17
2019-03-31T07:51:32.829Z,13.17
2019-03-31T07:54:19.825Z,13.17
2019-03-31T07:57:07.306Z,13.03
2019-03-31T07:59:56.546Z,13.10
2019-03-31T08:02:43.728Z,12.90
2019-03-31T08:05:33.322Z,12.47
2019-03-31T08:08:19.461Z,13.43
2019-03-31T08:11:06.690Z,12.33
2019-03-31T08:13:55.378Z,13.20
2019-03-31T08:16:42.800Z,13.70
2019-03-31T08:19:30.070Z,13.23
2019-03-31T08:22:17.223Z,12.47
2019-03-31T08:25:05.865Z,11.80
2019-03-31T08:27:53.187Z,12.83
2019-03-31T08:30:40.523Z,12.10
2019-03-31T08:33:27.863Z,12.07
2019-03-31T08:36:15.084Z,13.70
2019-03-31T08:39:04.558Z,12.47
2019-03-31T08:41:51.859Z,13.20
2019-03-31T08:44:39.871Z,13.30
2019-03-31T08:47:27.670Z,13.18
2019-03-31T08:50:16.087Z,13.20
2019-03-31T08:53:03.833Z,14.18
2019-03-31T08:55:51.626Z,14.95
2019-03-31T08:58:39.167Z,14.83
2019-03-31T09:01:26.857Z,14.83
2019-03-31T09:04:14.791Z,14.38
2019-03-31T09:07:02.525Z,14.20
2019-03-31T09:09:50.135Z,13.68
2019-03-31T09:12:38.724Z,12.50
2019-03-31T09:15:26.360Z,12.33
2019-03-31T09:18:14.277Z,12.80
2019-03-31T09:21:02.587Z,14.47
2019-03-31T09:23:50.585Z,13.32
2019-03-31T09:26:38.591Z,13.68
2019-03-31T09:29:26.397Z,15.30
2019-03-31T09:32:14.313Z,13.35
2019-03-31T09:35:01.859Z,13.40
2019-03-31T09:37:49.463Z,14.65
2019-03-31T09:40:36.957Z,14.05
2019-03-31T09:43:24.982Z,13.45
2019-03-31T09:46:12.740Z,12.45
2019-03-31T09:49:00.487Z,13.30
2019-03-31T09:51:48.147Z,13.38
2019-03-31T09:54:36.098Z,13.45
2019-03-31T09:57:23.476Z,14.50
2019-03-31T10:00:14.033Z,14.35
2019-03-31T10:03:01.998Z,15.53
2019-03-31T10:05:50.237Z,14.93
2019-03-31T10:08:37.770Z,14.28
2019-03-31T10:11:25.521Z,15.45
2019-03-31T10:14:13.414Z,15.88
2019-03-31T10:17:00.968Z,14.73
2019-03-31T10:19:48.311Z,22.13
2019-03-31T10:22:35.853Z,25.70
2019-03-31T10:25:24.013Z,18.12
2019-03-31T10:28:11.188Z,27.77
2019-03-31T10:30:59.100Z,44.83
2019-03-31T10:33:47.317Z,17.52
2019-03-31T10:36:44.420Z,16.70
2019-03-31T10:39:23.153Z,17.50
2019-03-31T10:42:10.995Z,18.45
2019-03-31T10:44:59.189Z,19.95
2019-03-31T10:47:46.469Z,13.98
2019-03-31T10:50:34.376Z,13.45
2019-03-31T10:53:21.983Z,13.77
2019-03-31T10:56:09.652Z,11.70
2019-03-31T10:58:57.061Z,10.63
2019-03-31T11:01:44.595Z,13.77
2019-03-31T11:04:32.076Z,9.23
2019-03-31T11:07:19.625Z,9.03
2019-03-31T11:10:08.819Z,12.60
2019-03-31T11:12:56.609Z,13.17
2019-03-31T11:15:44.179Z,10.40
2019-03-31T11:18:31.515Z,13.30
2019-03-31T11:21:23.349Z,10.27
2019-03-31T11:24:10.819Z,10.13
2019-03-31T11:26:58.492Z,12.00
2019-03-31T11:29:45.607Z,14.03
2019-03-31T11:32:32.945Z,9.47
2019-03-31T11:35:20.026Z,14.60
2019-03-31T11:38:07.574Z,13.67
2019-03-31T11:40:55.236Z,15.47
2019-03-31T11:43:42.573Z,12.60
2019-03-31T11:46:29.830Z,13.13
2019-03-31T11:49:17.342Z,12.60
2019-03-31T11:52:04.916Z,11.97
2019-03-31T11:54:52.429Z,13.87
2019-03-31T11:57:39.949Z,12.20
2019-03-31T12:00:30.576Z,13.57
2019-03-31T12:03:17.665Z,13.57
2019-03-31T12:06:05.202Z,13.43
2019-03-31T12:08:52.638Z,12.00
2019-03-31T12:11:39.962Z,13.03
2019-03-31T12:14:27.184Z,12.80
2019-03-31T12:17:14.260Z,13.13
2019-03-31T12:20:02.044Z,12.20
2019-03-31T12:22:49.437Z,12.53
2019-03-31T12:25:36.749Z,12.20
2019-03-31T12:28:24.355Z,12.57
2019-03-31T12:31:11.684Z,12.83
2019-03-31T12:33:59.199Z,12.17
2019-03-31T12:36:46.203Z,12.03
2019-03-31T12:39:34.317Z,12.47
2019-03-31T12:42:22.074Z,11.40
2019-03-31T12:45:09.687Z,11.80
2019-03-31T12:47:59.651Z,12.43
2019-03-31T12:50:46.378Z,12.57
2019-03-31T12:53:34.055Z,12.07
2019-03-31T12:56:21.653Z,11.77
2019-03-31T12:59:08.941Z,12.50
2019-03-31T13:01:56.334Z,12.33
2019-03-31T13:04:43.906Z,12.90
2019-03-31T13:07:31.092Z,12.87
2019-03-31T13:10:18.421Z,13.47
2019-03-31T13:13:05.843Z,13.60
2019-03-31T13:15:52.833Z,13.77
2019-03-31T13:18:40.435Z,12.93
2019-03-31T13:21:27.852Z,12.77
2019-03-31T13:24:15.400Z,13.23
2019-03-31T13:27:02.643Z,12.93
2019-03-31T13:29:50.299Z,12.10
2019-03-31T13:32:37.812Z,12.33
2019-03-31T13:35:25.137Z,11.60
2019-03-31T13:38:12.571Z,10.80
2019-03-31T13:41:00.216Z,11.97
2019-03-31T13:43:47.453Z,11.87
2019-03-31T13:46:34.854Z,11.80
2019-03-31T13:49:22.252Z,13.47
2019-03-31T13:52:09.535Z,13.67
2019-03-31T13:54:57.111Z,12.10
2019-03-31T13:57:45.640Z,12.13
2019-03-31T14:00:38.309Z,11.33
2019-03-31T14:03:25.830Z,12.00
2019-03-31T14:06:13.400Z,11.37
2019-03-31T14:09:00.698Z,10.67
2019-03-31T14:11:48.637Z,10.03
2019-03-31T14:14:35.982Z,10.77
2019-03-31T14:17:24.556Z,11.07
2019-03-31T14:20:12.490Z,10.93
2019-03-31T14:23:00.082Z,11.30
2019-03-31T14:25:47.713Z,10.17
2019-03-31T14:28:35.500Z,10.07
2019-03-31T14:31:23.150Z,9.97
2019-03-31T14:34:10.843Z,9.63
2019-03-31T14:36:58.439Z,10.07
2019-03-31T14:39:45.982Z,9.47
2019-03-31T14:42:33.218Z,10.40
2019-03-31T14:45:33.980Z,10.03
2019-03-31T14:48:21.183Z,9.90
2019-03-31T14:51:08.550Z,9.93
2019-03-31T14:53:55.970Z,9.63
2019-03-31T14:56:43.514Z,10.10
2019-03-31T14:59:31.179Z,10.13
2019-03-31T15:02:18.584Z,10.33
2019-03-31T15:05:06.446Z,9.50
2019-03-31T15:07:53.900Z,9.80
2019-03-31T15:10:41.536Z,8.57
2019-03-31T15:13:28.845Z,8.97
2019-03-31T15:16:15.987Z,8.63
2019-03-31T15:19:03.481Z,8.63
2019-03-31T15:21:50.852Z,9.17
2019-03-31T15:24:38.686Z,8.90
2019-03-31T15:27:26.067Z,9.23
2019-03-31T15:30:14.019Z,8.73
2019-03-31T15:33:01.369Z,8.73
2019-03-31T15:35:49.031Z,8.37
2019-03-31T15:38:36.307Z,8.33
2019-03-31T15:41:23.362Z,8.80
2019-03-31T15:44:10.710Z,8.37
2019-03-31T15:46:57.954Z,8.93
2019-03-31T15:49:45.502Z,9.87
2019-03-31T15:52:33.318Z,9.35
2019-03-31T15:55:20.936Z,9.45
2019-03-31T15:58:08.515Z,8.98
2019-03-31T16:00:56.035Z,9.05
2019-03-31T16:03:43.843Z,8.33
2019-03-31T16:06:31.733Z,8.50
2019-03-31T16:09:23.808Z,10.95
2019-03-31T16:12:08.776Z,9.45
2019-03-31T16:14:56.570Z,8.10
2019-03-31T16:17:44.657Z,9.23
2019-03-31T16:20:32.295Z,9.15
2019-03-31T16:23:20.151Z,9.23
2019-03-31T16:26:07.754Z,9.48
2019-03-31T16:28:55.652Z,8.73
2019-03-31T16:31:43.628Z,8.83
2019-03-31T16:34:31.208Z,9.25
2019-03-31T16:37:19.192Z,8.75
2019-03-31T16:40:07.396Z,9.58
2019-03-31T16:42:55.031Z,10.38
2019-03-31T16:45:42.686Z,10.35
2019-03-31T16:48:30.340Z,9.35
2019-03-31T16:51:17.887Z,8.88
2019-03-31T16:54:05.629Z,8.83
2019-03-31T16:56:53.143Z,8.30
2019-03-31T16:59:41.190Z,8.58
2019-03-31T17:02:28.777Z,8.33
2019-03-31T17:05:22.018Z,9.55
2019-03-31T17:08:05.788Z,7.33
2019-03-31T17:10:53.727Z,6.55
2019-03-31T17:13:41.073Z,6.92
2019-03-31T17:16:28.748Z,6.70
2019-03-31T17:19:16.594Z,6.67
2019-03-31T17:22:04.369Z,6.05
2019-03-31T17:24:52.044Z,5.65
2019-03-31T17:27:39.776Z,5.80
2019-03-31T17:30:27.373Z,5.42
2019-03-31T17:33:15.036Z,5.78
2019-03-31T17:36:02.676Z,10.60
2019-03-31T17:38:50.534Z,19.75
2019-03-31T17:41:38.510Z,10.75
2019-03-31T17:44:26.076Z,7.28
2019-03-31T17:47:13.972Z,5.95
2019-03-31T17:50:01.246Z,6.05
2019-03-31T17:52:49.317Z,5.83
2019-03-31T17:55:37.049Z,6.00
2019-03-31T17:58:24.757Z,5.62
2019-03-31T18:01:12.789Z,5.90
2019-03-31T18:04:00.602Z,5.50
2019-03-31T18:06:48.546Z,5.47
2019-03-31T18:09:35.770Z,5.87
2019-03-31T18:12:23.494Z,5.67
2019-03-31T18:15:11.416Z,5.30
2019-03-31T18:17:59.047Z,6.00
2019-03-31T18:20:46.685Z,5.58
2019-03-31T18:23:34.410Z,6.12
2019-03-31T18:26:22.257Z,6.80
2019-03-31T18:29:10.301Z,6.87
2019-03-31T18:31:58.033Z,7.67
2019-03-31T18:34:45.661Z,7.33
2019-03-31T18:37:33.595Z,7.80
2019-03-31T18:40:34.450Z,10.85
2019-03-31T18:43:10.982Z,7.83
2019-03-31T18:45:58.173Z,7.40
2019-03-31T18:48:45.218Z,7.60
2019-03-31T18:51:32.373Z,8.33
2019-03-31T18:54:21.348Z,7.17
2019-03-31T18:57:10.401Z,6.13
2019-03-31T19:00:07.962Z,6.27
2019-03-31T19:03:02.799Z,6.23
2019-03-31T19:05:51.734Z,6.10
2019-03-31T19:08:43.550Z,5.90
2019-03-31T19:11:32.378Z,5.00
2019-03-31T19:14:33.019Z,13.33
2019-03-31T19:17:37.938Z,7.23
2019-03-31T19:20:42.816Z,5.43
2019-03-31T19:23:31.605Z,5.63
2019-03-31T19:26:47.785Z,4.97
2019-03-31T19:29:26.985Z,5.40
2019-03-31T19:32:18.067Z,5.50
2019-03-31T19:35:16.619Z,5.83
2019-03-31T19:38:08.554Z,6.40
2019-03-31T19:41:04.673Z,5.70
2019-03-31T19:44:02.511Z,5.77
2019-03-31T19:46:57.075Z,5.73
2019-03-31T19:49:51.620Z,5.40
2019-03-31T19:52:46.244Z,5.87
2019-03-31T19:55:47.140Z,5.43
2019-03-31T19:58:38.670Z,6.17
2019-03-31T20:01:42.259Z,5.20
2019-03-31T20:04:45.726Z,5.70
2019-03-31T20:07:50.994Z,5.50
2019-03-31T20:10:51.777Z,5.87
2019-03-31T20:13:40.752Z,5.60
2019-03-31T20:16:41.221Z,6.13
2019-03-31T20:19:46.261Z,5.70
2019-03-31T20:22:40.735Z,5.80
2019-03-31T20:25:32.556Z,6.00
2019-03-31T20:28:21.149Z,5.67
2019-03-31T20:31:27.786Z,6.20
2019-03-31T20:34:19.692Z,6.13
2019-03-31T20:37:11.404Z,6.43
2019-03-31T20:40:00.402Z,6.47
2019-03-31T20:42:49.049Z,6.63
2019-03-31T20:45:35.923Z,7.27
2019-03-31T20:48:22.924Z,7.40
2019-03-31T20:51:10.087Z,6.80
2019-03-31T20:53:57.121Z,6.87
2019-03-31T20:56:44.424Z,7.03
2019-03-31T20:59:31.791Z,6.57
2019-03-31T21:02:19.097Z,6.83
2019-03-31T21:05:06.431Z,6.50
2019-03-31T21:07:53.715Z,6.70
2019-03-31T21:10:40.757Z,6.77
2019-03-31T21:13:28.202Z,6.73
2019-03-31T21:16:15.225Z,6.67
2019-03-31T21:19:02.219Z,7.10
2019-03-31T21:21:48.995Z,6.40
2019-03-31T21:24:35.689Z,6.37
2019-03-31T21:27:22.790Z,6.77
2019-03-31T21:30:10.094Z,7.33
2019-03-31T21:32:57.151Z,6.57
2019-03-31T21:35:44.686Z,6.77
2019-03-31T21:38:31.817Z,7.20
2019-03-31T21:41:19.117Z,6.50
2019-03-31T21:44:06.423Z,7.90
2019-03-31T21:46:55.949Z,7.70
2019-03-31T21:49:42.583Z,7.30
2019-03-31T21:52:29.706Z,6.97
2019-03-31T21:55:16.856Z,7.30
2019-03-31T21:58:03.693Z,8.43
2019-03-31T22:00:52.400Z,7.50
2019-03-31T22:03:39.647Z,8.57
2019-03-31T22:06:27.082Z,8.17
2019-03-31T22:09:14.251Z,7.80
2019-03-31T22:12:01.445Z,8.03
2019-03-31T22:14:48.146Z,7.73
2019-03-31T22:17:35.089Z,7.87
2019-03-31T22:20:21.913Z,7.40
2019-03-31T22:23:08.896Z,8.03
2019-03-31T22:25:56.241Z,7.77
2019-03-31T22:28:43.831Z,8.40
2019-03-31T22:31:31.172Z,7.80
2019-03-31T22:34:18.202Z,8.27
2019-03-31T22:37:05.170Z,8.00
2019-03-31T22:39:52.416Z,7.90
2019-03-31T22:42:39.753Z,7.47
2019-03-31T22:45:27.029Z,8.23
2019-03-31T22:48:13.947Z,7.83
2019-03-31T22:51:00.932Z,7.80
2019-03-31T22:53:48.010Z,7.43
2019-03-31T22:56:35.234Z,7.90
2019-03-31T22:59:21.919Z,7.20
2019-03-31T23:02:09.487Z,7.33
2019-03-31T23:04:56.256Z,7.57
2019-03-31T23:07:43.498Z,8.50
2019-03-31T23:10:30.524Z,8.33
2019-03-31T23:13:17.574Z,8.60
2019-03-31T23:16:04.708Z,9.50
2019-03-31T23:18:51.987Z,9.50
2019-03-31T23:21:38.915Z,8.03
2019-03-31T23:24:25.818Z,8.67
2019-03-31T23:27:12.554Z,8.50
2019-03-31T23:29:59.214Z,10.67
2019-03-31T23:32:46.455Z,9.87
2019-03-31T23:35:33.752Z,10.00
2019-03-31T23:38:21.143Z,9.93
2019-03-31T23:41:08.208Z,9.70
2019-03-31T23:43:55.409Z,10.07
2019-03-31T23:46:42.673Z,9.63
2019-03-31T23:49:29.673Z,9.27
2019-03-31T23:52:16.578Z,9.23
2019-03-31T23:55:04.016Z,9.17
2019-03-31T23:57:50.699Z,10.63
